Terminal Aerodrome Forecast
Issued by NWS Pittsburgh, PA

Current Version | Previous Version | Graphics & Text | Print | Product List | Glossary Off
Versions: 1 2 3 4 5 6 7 8 9 10 11 12 13 14 15 16 17 18 19 20 21 22 23 24 25 26

810
FTUS41 KPBZ 230534
TAFPIT
TAF
KPIT 230534Z 2306/2412 16008KT P6SM BKN080 WS020/20040KT
     FM230700 17008KT P6SM -SHRA OVC050 WS020/20040KT
      TEMPO 2307/2309 3SM SHRA
     FM230900 22010KT P6SM VCSH BKN050
     FM231400 23018G28KT P6SM VCSH BKN035
     FM232100 24015G25KT P6SM BKN025=

USA.gov is the U.S. government's official web portal to all federal, state and local government web resources and services.